Time;durP1;ratioP1;P1;durP2;ratioP2;P2;SDS_P1;SDS_P2;PMS_P1;PMS_P2;Temp;Humidity;BMP_temperature;BMP_pressure;BME280_temperature;BME280_humidity;BME280_pressure;Samples;Min_cycle;Max_cycle;Signal;HPM_P1;HPM_P2
2022/08/24 00:01:30;;;;;;;4.93;3.38;;;;;;;19.87;57.00;95818.50;5017712;28;20207;-81
2022/08/24 00:03:58;;;;;;;4.47;3.60;;;;;;;19.92;56.54;95817.81;5018229;28;20285;-82
2022/08/24 00:06:25;;;;;;;3.63;3.30;;;;;;;19.87;56.94;95807.25;5017562;28;20210;-81
2022/08/24 00:08:53;;;;;;;4.32;3.35;;;;;;;19.84;57.01;95818.16;5017127;28;20293;-81
2022/08/24 00:11:20;;;;;;;4.82;3.60;;;;;;;19.87;56.47;95817.69;5017790;28;20203;-82
2022/08/24 00:13:47;;;;;;;4.00;3.60;;;;;;;19.90;56.18;95817.25;5017236;28;20249;-82
2022/08/24 00:16:16;;;;;;;3.70;3.40;;;;;;;19.87;56.52;95807.25;5017270;28;20199;-81
2022/08/24 00:18:46;;;;;;;4.20;3.38;;;;;;;19.87;56.94;95809.84;5016561;28;20219;-82
2022/08/24 00:21:13;;;;;;;4.95;3.50;;;;;;;19.98;55.90;95812.47;5016213;28;20261;-81
2022/08/24 00:23:40;;;;;;;3.00;2.80;;;;;;;20.06;54.93;95811.31;5016605;28;20234;-81
2022/08/24 00:26:07;;;;;;;3.55;2.95;;;;;;;20.11;54.51;95810.63;5016210;28;20199;-81
2022/08/24 00:28:35;;;;;;;3.67;2.80;;;;;;;20.09;54.54;95810.06;5016290;28;20202;-82
2022/08/24 00:31:01;;;;;;;3.60;3.13;;;;;;;20.07;54.50;95806.88;5015201;28;20203;-81
2022/08/24 00:33:29;;;;;;;2.92;2.72;;;;;;;20.06;54.73;95810.50;5016348;28;20223;-82
2022/08/24 00:35:56;;;;;;;3.60;2.88;;;;;;;20.04;54.69;95805.50;5015755;28;20318;-80
2022/08/24 00:38:22;;;;;;;3.28;2.90;;;;;;;20.06;55.05;95810.50;5016407;28;20226;-82
2022/08/24 00:40:49;;;;;;;3.22;2.92;;;;;;;20.04;54.87;95809.94;5015310;28;20966;-81
2022/08/24 00:43:20;;;;;;;3.20;3.00;;;;;;;19.98;55.07;95812.47;5015359;28;20222;-81
2022/08/24 00:46:03;;;;;;;3.65;2.70;;;;;;;19.97;55.15;95803.03;5015442;28;20213;-82
2022/08/24 00:48:36;;;;;;;3.40;3.10;;;;;;;19.83;55.61;95809.50;5015277;28;20211;-81
2022/08/24 00:51:06;;;;;;;3.70;3.40;;;;;;;19.66;55.96;95811.22;5015364;28;20199;-82
2022/08/24 00:53:37;;;;;;;3.35;2.72;;;;;;;19.59;56.34;95802.72;5016177;28;20223;-82
2022/08/24 00:56:08;;;;;;;4.18;3.05;;;;;;;19.47;56.87;95802.69;5015751;28;20697;-80
2022/08/24 00:58:38;;;;;;;3.30;3.00;;;;;;;19.42;57.24;95807.81;5015896;28;20249;-81
2022/08/24 01:01:07;;;;;;;3.10;2.90;;;;;;;19.49;57.06;95811.09;5015773;28;20264;-81
2022/08/24 01:03:36;;;;;;;3.30;3.00;;;;;;;19.55;56.57;95812.84;5016195;28;20222;-80
2022/08/24 01:06:04;;;;;;;3.63;2.88;;;;;;;19.48;56.88;95811.31;5016582;28;20663;-80
2022/08/24 01:08:30;;;;;;;3.00;2.78;;;;;;;19.38;56.97;95813.69;5015502;28;20609;-82
2022/08/24 01:11:00;;;;;;;3.33;3.10;;;;;;;19.44;57.18;95807.56;5015619;28;20249;-82
2022/08/24 01:13:28;;;;;;;3.55;3.10;;;;;;;19.49;57.26;95810.28;5015430;28;20231;-82
2022/08/24 01:15:58;;;;;;;5.25;3.03;;;;;;;19.57;56.42;95815.22;5015871;28;20286;-81
2022/08/24 01:21:21;;;;;;;3.53;2.65;;;;;;;19.58;56.17;95811.59;5014611;28;20207;-80
2022/08/24 01:23:53;;;;;;;3.03;2.80;;;;;;;19.40;56.69;95809.84;5014482;28;20257;-81
2022/08/24 01:26:23;;;;;;;2.92;2.72;;;;;;;19.28;57.13;95814.25;5014919;28;20199;-82
2022/08/24 01:28:56;;;;;;;3.10;2.90;;;;;;;19.28;56.96;95815.03;5013894;28;20305;-82
2022/08/24 01:31:23;;;;;;;3.10;2.90;;;;;;;19.22;57.30;95813.34;5013554;28;20213;-82
2022/08/24 01:33:53;;;;;;;4.70;2.90;;;;;;;19.29;56.72;95808.00;5014898;28;20250;-81
2022/08/24 01:36:27;;;;;;;2.88;2.67;;;;;;;19.26;56.32;95806.63;5014013;28;20209;-81
2022/08/24 01:38:57;;;;;;;4.10;2.85;;;;;;;19.11;57.20;95811.50;5014039;28;20234;-82
2022/08/24 01:41:23;;;;;;;3.30;3.00;;;;;;;19.03;57.47;95809.22;5014027;28;20207;-81
2022/08/24 01:43:49;;;;;;;2.75;2.55;;;;;;;19.07;56.99;95806.94;5014539;28;20227;-82
2022/08/24 01:46:16;;;;;;;2.80;2.60;;;;;;;19.00;57.29;95799.22;5013740;28;20211;-81
2022/08/24 01:48:42;;;;;;;3.83;3.22;;;;;;;18.95;57.33;95796.47;5013982;28;20198;-82
2022/08/24 01:51:09;;;;;;;3.20;2.90;;;;;;;18.94;57.49;95803.50;5014036;28;20250;-81
2022/08/24 01:53:36;;;;;;;3.72;3.20;;;;;;;19.00;57.58;95791.38;5014696;28;20227;-82
2022/08/24 01:56:04;;;;;;;2.95;2.72;;;;;;;18.93;58.41;95795.91;5014610;28;20202;-81
2022/08/24 01:58:31;;;;;;;3.00;2.80;;;;;;;18.96;57.96;95792.84;5014003;28;20203;-82
2022/08/24 02:00:58;;;;;;;4.90;3.20;;;;;;;18.89;57.58;95805.97;5014043;28;20209;-81
2022/08/24 02:03:24;;;;;;;4.03;3.00;;;;;;;18.83;58.35;95798.28;5014461;28;20230;-81
2022/08/24 02:05:51;;;;;;;3.97;3.17;;;;;;;18.83;58.04;95790.44;5014006;28;20207;-81
2022/08/24 02:08:17;;;;;;;4.60;3.00;;;;;;;18.84;58.41;95794.66;5013421;28;20203;-82
2022/08/24 02:10:44;;;;;;;4.07;3.10;;;;;;;18.78;58.10;95801.53;5013135;28;20238;-82
2022/08/24 02:13:12;;;;;;;3.67;3.08;;;;;;;18.77;58.64;95799.94;5014130;28;20290;-80
2022/08/24 02:15:39;;;;;;;3.95;3.25;;;;;;;18.83;58.45;95809.50;5012996;28;20307;-80
2022/08/24 02:18:06;;;;;;;3.22;2.92;;;;;;;18.94;58.46;95810.53;5013389;28;20225;-82
2022/08/24 02:20:35;;;;;;;3.97;2.90;;;;;;;19.05;58.00;95806.38;5012435;28;20318;-80
2022/08/24 02:23:02;;;;;;;4.50;3.05;;;;;;;19.02;57.87;95802.41;5013013;28;20250;-81
2022/08/24 02:25:29;;;;;;;3.30;3.00;;;;;;;19.05;57.74;95801.94;5013726;28;20214;-82
2022/08/24 02:27:56;;;;;;;2.95;2.72;;;;;;;19.12;57.29;95800.03;5014197;28;20225;-81
2022/08/24 02:30:25;;;;;;;3.42;3.22;;;;;;;19.07;57.92;95799.91;5012532;28;20242;-81
2022/08/24 02:32:51;;;;;;;3.38;3.08;;;;;;;19.03;58.18;95803.19;5014448;28;20234;-82
2022/08/24 02:35:18;;;;;;;3.55;3.10;;;;;;;18.94;58.72;95802.72;5013786;28;20682;-82
2022/08/24 02:37:44;;;;;;;3.67;3.30;;;;;;;18.78;58.71;95806.75;5013884;28;20202;-82
2022/08/24 02:40:13;;;;;;;3.42;3.13;;;;;;;18.61;59.41;95808.41;5011652;28;20526;-82
2022/08/24 02:42:40;;;;;;;3.50;3.20;;;;;;;18.47;60.39;95799.13;5013910;28;20210;-81
2022/08/24 02:45:08;;;;;;;4.13;3.40;;;;;;;18.51;59.50;95813.28;5013963;28;20214;-81
2022/08/24 02:47:37;;;;;;;4.28;3.05;;;;;;;18.55;59.96;95809.25;5014463;28;20199;-82
2022/08/24 02:50:06;;;;;;;3.00;2.80;;;;;;;18.61;60.06;95806.59;5013835;28;20594;-81
2022/08/24 02:52:34;;;;;;;3.30;3.00;;;;;;;18.67;60.00;95801.47;5013982;28;20265;-82
2022/08/24 02:55:01;;;;;;;3.20;2.90;;;;;;;18.67;60.05;95812.72;5013273;28;20223;-81
2022/08/24 02:57:27;;;;;;;3.58;3.28;;;;;;;18.66;59.54;95810.34;5013043;28;20199;-82
2022/08/24 02:59:54;;;;;;;3.40;3.10;;;;;;;18.62;59.36;95807.38;5013073;28;20642;-81
2022/08/24 03:02:20;;;;;;;3.60;3.30;;;;;;;18.52;59.82;95804.47;5012849;28;20203;-81
2022/08/24 03:04:48;;;;;;;3.50;3.20;;;;;;;18.50;60.25;95809.88;5013477;28;20223;-82
2022/08/24 03:07:14;;;;;;;3.45;3.08;;;;;;;18.46;60.30;95802.75;5013303;28;20202;-80
2022/08/24 03:09:41;;;;;;;3.25;2.95;;;;;;;18.45;60.15;95804.56;5013176;28;20223;-82
2022/08/24 03:12:08;;;;;;;3.55;3.25;;;;;;;18.48;60.16;95800.69;5012866;28;20571;-82
2022/08/24 03:14:34;;;;;;;3.55;3.25;;;;;;;18.39;60.97;95800.22;5013482;28;20611;-82
2022/08/24 03:17:01;;;;;;;3.90;3.28;;;;;;;18.36;61.50;95802.47;5012593;28;20231;-81
2022/08/24 03:19:28;;;;;;;3.55;3.25;;;;;;;18.37;60.52;95799.63;5013734;28;20238;-82
2022/08/24 03:21:56;;;;;;;3.38;2.97;;;;;;;18.37;60.78;95799.63;5016616;28;20297;-81
2022/08/24 03:24:23;;;;;;;3.55;3.25;;;;;;;18.25;61.18;95804.81;5016910;28;20594;-81
2022/08/24 03:26:49;;;;;;;3.50;3.20;;;;;;;18.25;60.91;95802.19;5017461;28;20214;-81
2022/08/24 03:29:16;;;;;;;3.50;3.30;;;;;;;18.26;60.98;95803.78;5016908;28;20223;-82
2022/08/24 03:31:42;;;;;;;3.45;3.15;;;;;;;18.29;60.75;95803.31;5016920;28;20213;-81
2022/08/24 03:34:12;;;;;;;4.30;3.50;;;;;;;18.28;61.43;95800.94;5017561;28;20231;-81
2022/08/24 03:36:39;;;;;;;3.65;3.17;;;;;;;18.28;61.16;95808.75;5017186;28;20230;-82
2022/08/24 03:39:06;;;;;;;5.20;3.47;;;;;;;18.34;60.71;95805.28;5016826;28;20239;-81
2022/08/24 03:41:33;;;;;;;3.17;2.90;;;;;;;18.38;60.55;95805.66;5016654;28;20211;-81
2022/08/24 03:43:59;;;;;;;4.00;3.03;;;;;;;18.32;60.58;95815.13;5016624;28;20281;-81
2022/08/24 03:46:28;;;;;;;3.30;2.97;;;;;;;18.32;60.69;95820.34;5016317;28;20205;-81
2022/08/24 03:48:55;;;;;;;3.72;3.25;;;;;;;18.39;60.42;95825.50;5015252;28;20705;-81
2022/08/24 03:51:24;;;;;;;4.53;3.20;;;;;;;18.37;60.50;95822.31;5015752;28;20210;-80
2022/08/24 03:53:51;;;;;;;3.92;3.30;;;;;;;18.34;60.12;95820.13;5015873;28;20223;-82
2022/08/24 03:56:19;;;;;;;3.70;3.40;;;;;;;18.17;60.38;95819.94;5016522;28;20382;-81
2022/08/24 03:58:46;;;;;;;3.60;3.30;;;;;;;18.11;60.72;95815.56;5015474;28;20226;-81
2022/08/24 04:01:15;;;;;;;3.20;3.00;;;;;;;18.15;60.59;95817.53;5016076;28;20227;-81
2022/08/24 04:03:43;;;;;;;4.75;3.10;;;;;;;18.17;60.74;95812.91;5016583;28;20226;-80
2022/08/24 04:06:12;;;;;;;3.58;3.00;;;;;;;18.09;60.99;95817.63;5016530;28;20206;-80
2022/08/24 04:08:39;;;;;;;3.20;2.90;;;;;;;18.10;60.61;95820.00;5015946;28;20245;-81
2022/08/24 04:11:10;;;;;;;3.30;3.00;;;;;;;18.13;60.32;95816.16;5016249;28;20245;-81
2022/08/24 04:13:39;;;;;;;3.30;3.00;;;;;;;18.08;60.19;95813.44;5016661;28;20572;-81
2022/08/24 04:16:06;;;;;;;4.55;3.30;;;;;;;18.07;60.30;95823.06;5016736;28;20199;-81
2022/08/24 04:18:33;;;;;;;2.95;2.75;;;;;;;18.03;60.03;95813.28;5015475;28;20619;-81
2022/08/24 04:21:00;;;;;;;3.45;3.15;;;;;;;18.00;59.79;95816.31;5014574;28;20257;-82
2022/08/24 04:23:26;;;;;;;3.00;2.80;;;;;;;18.02;59.34;95815.09;5016171;28;20234;-81
2022/08/24 04:25:53;;;;;;;5.13;2.95;;;;;;;18.11;58.95;95811.16;5016623;28;20264;-81
2022/08/24 04:28:22;;;;;;;2.88;2.63;;;;;;;18.14;58.61;95815.16;5016148;28;20210;-81
2022/08/24 04:30:50;;;;;;;3.20;2.72;;;;;;;18.19;58.45;95818.69;5012423;28;20691;-82
2022/08/24 04:33:18;;;;;;;2.92;2.72;;;;;;;18.26;57.93;95809.00;5013356;28;20230;-81
2022/08/24 04:35:47;;;;;;;2.95;2.63;;;;;;;18.37;57.40;95811.88;5010607;28;20206;-81
2022/08/24 04:38:15;;;;;;;3.80;2.80;;;;;;;18.38;57.47;95810.88;5015459;28;20203;-81
2022/08/24 04:40:43;;;;;;;2.80;2.60;;;;;;;18.39;58.21;95804.63;5014703;28;20289;-82
2022/08/24 04:43:09;;;;;;;3.53;3.08;;;;;;;18.38;57.39;95811.66;4997679;28;20211;-80
2022/08/24 04:45:39;;;;;;;2.75;2.55;;;;;;;18.35;57.92;95812.09;5013697;28;20211;-82
2022/08/24 04:48:07;;;;;;;3.50;3.13;;;;;;;18.38;58.32;95816.88;5019155;28;20198;-82
2022/08/24 04:50:34;;;;;;;3.33;3.03;;;;;;;18.46;58.38;95821.81;5015090;28;20223;-81
2022/08/24 04:53:02;;;;;;;3.45;2.80;;;;;;;18.45;58.68;95830.63;5016900;28;20226;-82
2022/08/24 04:55:28;;;;;;;3.13;2.90;;;;;;;18.51;58.32;95823.72;5018033;28;20574;-81
2022/08/24 04:57:54;;;;;;;3.92;3.10;;;;;;;18.56;58.75;95824.66;5018240;28;20208;-82
2022/08/24 05:00:22;;;;;;;5.30;2.95;;;;;;;18.60;58.89;95828.47;5014920;28;20677;-83
2022/08/24 05:02:49;;;;;;;4.28;2.83;;;;;;;18.47;59.53;95825.97;5017521;28;20203;-82
2022/08/24 05:05:16;;;;;;;3.10;2.90;;;;;;;18.36;60.42;95833.75;5016306;28;20214;-83
2022/08/24 05:07:43;;;;;;;3.97;3.13;;;;;;;18.33;60.83;95834.97;5019104;28;20203;-82
2022/08/24 05:10:10;;;;;;;3.50;3.20;;;;;;;18.38;60.32;95832.50;5017161;28;20231;-81
2022/08/24 05:12:38;;;;;;;3.78;3.13;;;;;;;18.40;60.09;95840.91;5017963;28;20237;-81
2022/08/24 05:15:05;;;;;;;3.30;3.00;;;;;;;18.52;60.08;95830.53;5017348;28;20318;-81
2022/08/24 05:17:32;;;;;;;3.58;3.28;;;;;;;18.45;59.78;95842.88;5018843;28;20540;-82
2022/08/24 05:19:58;;;;;;;5.43;3.20;;;;;;;18.50;60.64;95849.00;5015282;28;20585;-81
2022/08/24 05:22:26;;;;;;;3.85;3.38;;;;;;;18.48;59.78;95843.22;5016690;28;20313;-81
2022/08/24 05:24:53;;;;;;;3.95;3.42;;;;;;;18.55;61.28;95851.75;5017008;28;20239;-81
2022/08/24 05:27:20;;;;;;;4.32;3.42;;;;;;;18.53;61.54;95848.56;5018417;28;20206;-81
2022/08/24 05:29:46;;;;;;;3.40;3.10;;;;;;;18.47;61.90;95852.06;5016565;28;20226;-82
2022/08/24 05:32:13;;;;;;;5.55;3.08;;;;;;;18.65;60.46;95856.50;5017170;28;20249;-81
2022/08/24 05:34:40;;;;;;;4.55;3.10;;;;;;;18.75;58.95;95853.34;5017833;28;20218;-82
2022/08/24 05:37:06;;;;;;;10.18;8.98;;;;;;;18.87;58.39;95859.41;5017586;28;20209;-81
2022/08/24 05:39:34;;;;;;;4.20;3.20;;;;;;;18.99;58.48;95862.88;5016870;28;20843;-81
2022/08/24 05:42:00;;;;;;;4.07;3.67;;;;;;;18.97;58.03;95864.91;5016869;28;20207;-82
2022/08/24 05:44:29;;;;;;;7.88;6.32;;;;;;;19.05;56.16;95863.81;5017187;28;20230;-81
2022/08/24 05:46:56;;;;;;;13.05;11.73;;;;;;;18.98;56.67;95869.09;5015116;28;20202;-82
2022/08/24 05:49:23;;;;;;;5.90;5.35;;;;;;;19.13;56.38;95872.09;5014933;28;20284;-81
2022/08/24 05:51:50;;;;;;;3.90;3.28;;;;;;;19.27;55.44;95870.88;5014569;28;20675;-80
2022/08/24 05:54:17;;;;;;;6.35;4.53;;;;;;;19.35;54.72;95868.97;5015887;28;20227;-81
2022/08/24 05:56:46;;;;;;;5.50;3.35;;;;;;;19.42;54.25;95877.53;5014610;28;20233;-81
2022/08/24 05:59:14;;;;;;;16.85;14.88;;;;;;;19.47;53.77;95875.00;5014279;28;20304;-80
2022/08/24 06:01:42;;;;;;;13.65;12.40;;;;;;;19.57;53.36;95885.75;5014159;28;20232;-82
2022/08/24 06:04:08;;;;;;;6.93;6.32;;;;;;;19.66;53.26;95877.34;5014256;28;20226;-81
2022/08/24 06:06:35;;;;;;;5.00;3.83;;;;;;;19.72;52.87;95880.88;5014064;28;20233;-82
2022/08/24 06:09:02;;;;;;;5.75;4.30;;;;;;;19.69;52.75;95877.91;5014095;28;20226;-81
2022/08/24 06:11:31;;;;;;;6.10;4.47;;;;;;;19.66;53.41;95874.72;5016685;28;20233;-82
2022/08/24 06:14:01;;;;;;;4.47;3.35;;;;;;;19.62;53.12;95878.84;5015184;28;20246;-80
2022/08/24 06:16:28;;;;;;;3.53;3.22;;;;;;;19.82;53.47;95875.09;5014553;28;20666;-81
2022/08/24 06:18:55;;;;;;;4.35;2.83;;;;;;;20.00;53.28;95873.16;5014623;28;20239;-81
2022/08/24 06:21:24;;;;;;;2.50;2.30;;;;;;;20.13;52.35;95876.56;5014962;28;20284;-82
2022/08/24 06:23:51;;;;;;;2.85;2.55;;;;;;;20.18;51.45;95881.91;5014844;28;20238;-81
2022/08/24 06:29:05;;;;;;;3.15;2.63;;;;;;;20.23;50.83;95885.41;5015636;28;20241;-81
2022/08/24 06:31:36;;;;;;;3.10;2.80;;;;;;;20.12;50.92;95882.81;5013591;28;20198;-82
2022/08/24 06:34:03;;;;;;;3.50;2.40;;;;;;;20.23;50.78;95877.56;5013859;28;20222;-81
2022/08/24 06:36:29;;;;;;;3.42;2.63;;;;;;;20.23;51.54;95879.38;5014730;28;20210;-80
2022/08/24 06:38:56;;;;;;;3.15;2.83;;;;;;;20.19;50.87;95875.66;5018427;28;20234;-80
2022/08/24 06:41:22;;;;;;;2.95;2.75;;;;;;;20.29;51.28;95879.25;5018731;28;20229;-81
2022/08/24 06:43:48;;;;;;;4.53;2.65;;;;;;;20.38;51.78;95878.94;5020681;28;20247;-81
2022/08/24 06:46:16;;;;;;;7.90;5.75;;;;;;;20.39;52.53;95881.34;5014380;28;20207;-81
2022/08/24 06:48:43;;;;;;;6.85;6.18;;;;;;;20.55;52.47;95878.00;5007708;28;20872;-82
2022/08/24 06:51:11;;;;;;;12.70;11.43;;;;;;;20.65;51.26;95880.81;5000550;28;20195;-81
2022/08/24 06:53:38;;;;;;;6.00;5.10;;;;;;;20.82;50.84;95893.16;5000196;28;20374;-80
2022/08/24 06:56:05;;;;;;;5.18;4.68;;;;;;;20.84;50.97;95885.88;5004913;28;20207;-81
2022/08/24 06:58:32;;;;;;;4.57;3.72;;;;;;;20.92;50.11;95885.50;5005235;28;20212;-81
2022/08/24 07:01:08;;;;;;;6.78;3.25;;;;;;;21.03;48.96;95889.88;5004502;28;20230;-81
2022/08/24 07:03:36;;;;;;;5.32;3.25;;;;;;;21.09;50.05;95890.78;5010858;28;20292;-80
2022/08/24 07:06:06;;;;;;;13.45;3.63;;;;;;;21.27;50.11;95888.00;5001403;28;20208;-81
2022/08/24 07:08:33;;;;;;;4.10;3.67;;;;;;;21.17;49.60;95896.41;5001979;28;20235;-81
2022/08/24 07:10:59;;;;;;;4.40;3.53;;;;;;;21.31;49.47;95900.38;5002631;28;20277;-81
2022/08/24 07:13:26;;;;;;;3.83;3.53;;;;;;;21.50;49.86;95898.34;5004429;28;20695;-80
2022/08/24 07:15:53;;;;;;;6.00;3.83;;;;;;;21.73;49.18;95894.78;5005388;28;20207;-80
2022/08/24 07:18:20;;;;;;;3.13;2.83;;;;;;;21.89;49.07;95886.13;5023421;28;20207;-81
2022/08/24 07:20:49;;;;;;;6.72;3.40;;;;;;;21.93;48.89;95892.47;5027960;28;20231;-79
2022/08/24 07:23:15;;;;;;;4.70;3.25;;;;;;;21.97;48.28;95900.63;5028245;28;20261;-80
2022/08/24 07:25:42;;;;;;;5.00;3.40;;;;;;;22.11;48.15;95891.44;5028204;28;20198;-82
2022/08/24 07:28:09;;;;;;;3.67;3.20;;;;;;;22.29;47.99;95893.00;5028428;28;20226;-80
2022/08/24 07:30:36;;;;;;;5.43;3.08;;;;;;;22.37;46.07;95892.56;5025971;28;20233;-82
2022/08/24 07:33:02;;;;;;;3.10;2.80;;;;;;;22.53;46.22;95893.53;5027578;28;20382;-82
2022/08/24 07:35:31;;;;;;;7.72;4.05;;;;;;;22.53;45.00;95891.72;5027467;28;20206;-82
2022/08/24 07:38:00;;;;;;;3.10;2.90;;;;;;;22.71;45.17;95894.03;5027525;28;20729;-81
2022/08/24 07:40:30;;;;;;;5.60;2.88;;;;;;;22.72;43.92;95892.19;5022750;28;20257;-81
2022/08/24 07:42:58;;;;;;;3.67;3.22;;;;;;;22.91;43.91;95892.69;5006810;28;20207;-82
2022/08/24 07:45:25;;;;;;;27.60;24.88;;;;;;;23.06;44.15;95895.53;5007326;28;20207;-81
2022/08/24 07:47:53;;;;;;;3.78;3.20;;;;;;;23.21;43.46;95889.63;5008303;28;20207;-80
2022/08/24 07:50:19;;;;;;;4.47;2.42;;;;;;;23.13;43.45;95890.84;5005365;28;20266;-82
2022/08/24 07:52:46;;;;;;;3.55;2.67;;;;;;;23.27;43.60;95892.06;5007694;28;20207;-82
2022/08/24 07:55:14;;;;;;;5.57;5.07;;;;;;;23.34;43.14;95884.75;5008021;28;20234;-81
2022/08/24 07:57:43;;;;;;;2.50;2.30;;;;;;;23.52;42.96;95890.69;5007472;28;20230;-81
2022/08/24 08:00:13;;;;;;;6.35;4.05;;;;;;;23.59;42.58;95892.09;5006173;28;20235;-82
2022/08/24 08:02:41;;;;;;;4.25;3.85;;;;;;;23.58;43.82;95892.34;5007547;28;20200;-82
2022/08/24 08:05:08;;;;;;;2.80;2.42;;;;;;;23.42;43.43;95888.75;5007004;28;20223;-82
2022/08/24 08:07:35;;;;;;;5.00;3.55;;;;;;;23.49;44.51;95888.53;5007259;28;20456;-80
2022/08/24 08:10:02;;;;;;;3.85;2.80;;;;;;;23.56;43.23;95884.69;4998331;28;20239;-81
2022/08/24 08:12:29;;;;;;;3.00;2.70;;;;;;;23.62;44.46;95886.34;5008129;28;20658;-82
2022/08/24 08:14:57;;;;;;;4.85;2.70;;;;;;;23.50;42.77;95882.25;5007519;28;20227;-82
2022/08/24 08:17:24;;;;;;;4.03;2.63;;;;;;;23.57;43.29;95881.03;5016032;28;20199;-81
2022/08/24 08:19:50;;;;;;;3.72;2.35;;;;;;;23.71;43.70;95887.44;5009467;28;20231;-82
2022/08/24 08:25:00;;;;;;;2.60;2.40;;;;;;;23.83;42.69;95881.22;5026393;28;20233;-83
2022/08/24 08:27:27;;;;;;;3.42;2.88;;;;;;;23.93;43.26;95881.28;5025582;28;20194;-82
2022/08/24 08:29:56;;;;;;;7.88;2.65;;;;;;;23.96;43.00;95883.41;5024521;28;20503;-81
2022/08/24 08:32:22;;;;;;;4.43;2.88;;;;;;;24.07;42.78;95890.31;5021685;28;20297;-81
2022/08/24 08:34:49;;;;;;;5.15;2.75;;;;;;;24.05;42.30;95885.31;5019866;28;20647;-81
2022/08/24 08:37:16;;;;;;;3.40;2.35;;;;;;;24.15;42.12;95894.31;5015946;28;20249;-82
2022/08/24 08:39:43;;;;;;;4.07;2.65;;;;;;;24.32;42.34;95885.25;5015524;28;20231;-82
2022/08/24 08:42:40;;;;;;;5.88;2.95;;;;;;;24.61;42.52;95885.66;5018652;28;20226;-82
2022/08/24 08:45:18;;;;;;;3.55;2.35;;;;;;;24.77;42.41;95895.19;5013664;28;20222;-81
2022/08/24 08:48:32;;;;;;;2.75;2.50;;;;;;;24.89;42.02;95888.91;5018214;28;20636;-82
2022/08/24 08:51:38;;;;;;;2.92;2.63;;;;;;;25.06;42.29;95885.03;5016338;28;20221;-81
2022/08/24 08:54:13;;;;;;;3.03;2.55;;;;;;;24.85;41.76;95885.97;5017275;28;20222;-82
2022/08/24 08:56:50;;;;;;;3.10;2.80;;;;;;;24.73;42.09;95883.59;5017184;28;20780;-82
2022/08/24 08:59:33;;;;;;;3.85;2.63;;;;;;;24.81;42.82;95884.16;5016941;28;20230;-83
2022/08/24 09:02:16;;;;;;;14.73;13.27;;;;;;;25.13;43.28;95882.16;5010403;28;20253;-82
2022/08/24 09:04:54;;;;;;;3.92;3.30;;;;;;;25.25;41.87;95890.59;5017384;28;20253;-83
2022/08/24 09:07:33;;;;;;;3.10;2.63;;;;;;;25.02;42.04;95894.50;5017885;28;20199;-81
2022/08/24 09:10:29;;;;;;;6.63;5.85;;;;;;;25.23;41.93;95884.78;5011014;28;20288;-83
2022/08/24 09:13:11;;;;;;;2.90;2.67;;;;;;;25.44;42.23;95890.88;5015870;28;20191;-82
2022/08/24 09:16:12;;;;;;;3.90;2.88;;;;;;;25.45;42.08;95887.97;5016931;28;20199;-82
2022/08/24 09:18:52;;;;;;;3.65;2.50;;;;;;;25.44;42.14;95890.88;5016465;28;20257;-81
2022/08/24 09:21:41;;;;;;;5.13;2.80;;;;;;;25.52;41.76;95877.19;5015474;28;20219;-82
2022/08/24 09:24:24;;;;;;;4.55;2.70;;;;;;;25.59;41.56;95879.56;5010188;28;20230;-81
2022/08/24 09:26:58;;;;;;;2.70;2.50;;;;;;;25.59;41.26;95871.66;5010712;28;20194;-82
2022/08/24 09:29:47;;;;;;;5.10;2.90;;;;;;;25.69;42.41;95874.31;5018675;28;20237;-82
2022/08/24 09:32:31;;;;;;;5.40;2.72;;;;;;;25.69;41.51;95876.94;5012810;28;20195;-81
2022/08/24 09:35:02;;;;;;;2.83;2.50;;;;;;;25.85;41.26;95861.88;5017303;28;20690;-82
2022/08/24 09:37:34;;;;;;;3.63;2.50;;;;;;;25.94;41.58;95863.75;5016364;28;20217;-82
2022/08/24 09:40:11;;;;;;;2.80;2.60;;;;;;;26.02;41.70;95865.81;5011843;28;20298;-82
2022/08/24 09:43:11;;;;;;;2.65;2.45;;;;;;;26.17;41.78;95871.06;5017406;28;20218;-83
2022/08/24 09:46:08;;;;;;;2.80;2.45;;;;;;;26.36;41.99;95868.66;5017349;28;20202;-82
2022/08/24 09:49:27;;;;;;;2.60;2.40;;;;;;;26.49;40.70;95862.84;5016678;28;20230;-81
2022/08/24 09:52:17;;;;;;;4.35;3.15;;;;;;;26.61;41.50;95859.06;5016131;28;20210;-81
2022/08/24 09:55:22;;;;;;;3.55;2.58;;;;;;;26.61;41.54;95859.06;5011292;28;20605;-83
2022/08/24 09:58:01;;;;;;;2.67;2.55;;;;;;;26.55;41.38;95857.53;4970411;28;20230;-83
2022/08/24 10:00:33;;;;;;;2.72;2.50;;;;;;;26.45;40.48;95861.78;5014212;28;20229;-83
2022/08/24 10:03:10;;;;;;;2.70;2.50;;;;;;;26.45;40.87;95861.78;5015356;28;20214;-83
2022/08/24 10:06:06;;;;;;;3.15;2.63;;;;;;;26.58;41.88;95854.31;5010624;28;20217;-82
2022/08/24 10:08:53;;;;;;;2.70;2.50;;;;;;;26.45;41.11;95859.13;5015445;28;20211;-82
2022/08/24 10:11:27;;;;;;;4.82;2.58;;;;;;;26.46;41.04;95858.09;4998727;28;20206;-83
2022/08/24 10:14:04;;;;;;;3.35;2.38;;;;;;;26.56;40.85;95851.94;5009512;28;20214;-83
2022/08/24 10:16:41;;;;;;;2.65;2.42;;;;;;;26.38;42.10;95852.56;5011482;28;20578;-83
2022/08/24 10:19:29;;;;;;;2.83;2.63;;;;;;;26.45;42.41;95851.22;5011580;28;20679;-82
2022/08/24 10:22:02;;;;;;;2.50;2.30;;;;;;;26.71;41.91;95854.56;5015144;28;20215;-82
2022/08/24 10:24:53;;;;;;;3.80;2.38;;;;;;;26.83;42.72;95846.28;5015927;28;20230;-82
2022/08/24 10:27:29;;;;;;;3.38;3.05;;;;;;;26.92;43.02;95849.16;5018565;28;20203;-82
2022/08/24 10:30:21;;;;;;;5.47;5.00;;;;;;;26.96;42.18;95853.63;5018062;28;20222;-82
2022/08/24 10:32:57;;;;;;;2.50;2.30;;;;;;;27.06;41.63;95839.59;5020334;28;20659;-82
2022/08/24 10:35:32;;;;;;;3.42;2.50;;;;;;;27.26;41.91;95851.88;5015281;28;20237;-82
2022/08/24 10:41:32;;;;;;;2.45;2.28;;;;;;;27.49;41.34;95848.53;5009160;28;20229;-82
2022/08/24 10:44:16;;;;;;;2.50;2.30;;;;;;;27.55;41.22;95855.34;5017311;28;20646;-83
2022/08/24 10:46:50;;;;;;;2.50;2.25;;;;;;;27.55;41.00;95854.56;5015759;28;20203;-83
2022/08/24 10:49:54;;;;;;;2.60;2.40;;;;;;;27.61;40.81;95840.25;5021976;28;20225;-83
2022/08/24 10:52:52;;;;;;;3.15;2.30;;;;;;;27.58;40.93;95840.81;5011324;28;20196;-83
2022/08/24 10:55:22;;;;;;;2.50;2.30;;;;;;;27.40;40.66;95839.59;5001149;28;20294;-83
2022/08/24 10:57:59;;;;;;;2.45;2.20;;;;;;;27.23;41.07;95836.56;5002954;28;20208;-82
2022/08/24 11:00:28;;;;;;;4.90;2.70;;;;;;;27.28;41.99;95839.19;5002251;28;20646;-84
2022/08/24 11:03:09;;;;;;;4.60;2.70;;;;;;;27.36;42.43;95841.22;5002198;28;20602;-84
2022/08/24 11:05:41;;;;;;;2.67;2.47;;;;;;;27.33;43.04;95841.75;5004653;28;20230;-83
2022/08/24 11:08:08;;;;;;;2.90;2.70;;;;;;;27.51;43.73;95833.19;5002163;28;20218;-83
2022/08/24 11:10:37;;;;;;;3.35;3.08;;;;;;;27.53;42.34;95825.72;5002723;28;20230;-84
2022/08/24 11:13:22;;;;;;;2.47;2.28;;;;;;;27.63;42.09;95825.69;5022164;28;20210;-82
2022/08/24 11:15:51;;;;;;;3.17;2.45;;;;;;;27.65;42.54;95836.78;5010089;28;20206;-84
2022/08/24 11:18:18;;;;;;;2.60;2.40;;;;;;;27.78;41.90;95830.03;5023595;28;20249;-84
2022/08/24 11:20:47;;;;;;;2.70;2.50;;;;;;;27.81;40.48;95825.00;5020269;28;20279;-84
2022/08/24 11:23:16;;;;;;;2.72;2.53;;;;;;;27.86;41.07;95834.75;5025027;28;20437;-84
2022/08/24 11:25:54;;;;;;;2.70;2.50;;;;;;;27.82;39.86;95834.50;5025539;28;20765;-83
2022/08/24 11:28:29;;;;;;;3.45;3.03;;;;;;;27.81;40.98;95829.50;5024276;28;20229;-83
2022/08/24 11:30:55;;;;;;;8.40;7.57;;;;;;;27.74;41.18;95836.97;5020772;28;20222;-84
2022/08/24 11:33:29;;;;;;;3.58;3.28;;;;;;;27.76;41.41;95834.81;5024407;28;20361;-83
2022/08/24 11:35:58;;;;;;;2.95;2.75;;;;;;;27.91;41.95;95828.59;5026077;28;20210;-83
2022/08/24 11:38:29;;;;;;;2.83;2.60;;;;;;;27.97;41.35;95824.84;5024685;28;20203;-82
2022/08/24 11:41:03;;;;;;;2.47;2.28;;;;;;;27.95;39.92;95821.69;4992740;28;20227;-83
2022/08/24 11:43:53;;;;;;;5.45;2.50;;;;;;;27.85;40.39;95817.28;4988791;28;20223;-84
2022/08/24 11:46:30;;;;;;;2.67;2.30;;;;;;;28.01;39.98;95815.25;5006400;28;20208;-83
2022/08/24 11:49:09;;;;;;;4.22;2.67;;;;;;;28.11;40.16;95821.22;5007890;28;20232;-84
2022/08/24 11:51:46;;;;;;;2.97;2.75;;;;;;;27.76;40.97;95821.59;5023959;28;20266;-84
2022/08/24 11:54:23;;;;;;;4.38;2.38;;;;;;;27.61;41.48;95821.75;5023598;28;20218;-84
2022/08/24 11:57:03;;;;;;;3.00;2.20;;;;;;;27.48;41.59;95821.28;5023157;28;20850;-83
2022/08/24 11:59:42;;;;;;;5.07;2.30;;;;;;;27.73;41.47;95819.50;5021737;28;20226;-83
2022/08/24 12:02:16;;;;;;;4.15;2.58;;;;;;;27.68;40.54;95819.56;5016691;28;20223;-84
2022/08/24 12:04:53;;;;;;;2.33;2.22;;;;;;;27.65;41.43;95822.78;5021061;28;20218;-84